Hovedside
METAR-TAF:

METAR-TAF

Lufthavner :

Kalmar lufthavn

Kalmar, Sverige

breddegrad: 56-44N, lengdegrad: 016-18E, høyde over havet: 16 m

Gjeldene værobservasjon

Denne rapporten ble laget for 23 minutter siden, klokken 03:20 UTC
Vind 4 kt fra Sør
Temperatur 17°C
Luftfuktighet 94%
Trykk 1006 hPa
Sikt 10 km eller mer

METAR: ESMQ 180320Z AUTO 18004KT 9999 FEW029/// SCT038/// BKN046/// 17/16 Q1006

Tid: 05:43 (03:43 UTC)

Varsel

Denne rapporten ble laget for 19 timer og 13 minutter siden, klokken 08:30 UTC
Varsel gyldig fra 17. klokken 09 UTC til 17. klokken 12 UTC
Vind 15 kt fra Sør
Sikt 10 km eller mer
ingen skyer under 1500 m og ingen bygeskyer

TAF: ESMQ 170830Z 1709/1712 18015KT CAVOK

Værobservasjoner og værvarsel for over 4000 flyplasser (METAR- og TAF-rapporter).

Tilgjengelige stasjoner er representert av de røde og gule prikkene på kartet.

Hold musepekeren over prikken for å se navnet på stasjonen.

Klikk så for å se værobservasjoner og -varsler.

For å forandre kartet kan du klikke på den grønne knappen med svart kryss for å zoome inn, på den grønne knappen med strek for å zoome ut, eller på de grønne pilene for å se tilstøtende kart.


METAR-TAF: